Time;durP1;ratioP1;P1;durP2;ratioP2;P2;SDS_P1;SDS_P2;PMS_P1;PMS_P2;Temp;Humidity;BMP_temperature;BMP_pressure;BME280_temperature;BME280_humidity;BME280_pressure;Samples;Min_cycle;Max_cycle;Signal;HPM_P1;HPM_P2
2022/10/01 00:00:35;;;;;;;;;;;;;;;16.29;76.13;100079.53;5012365;28;803;-57
2022/10/01 00:03:01;;;;;;;;;;;;;;;16.32;76.16;100081.44;5012130;28;946;-57
2022/10/01 00:05:28;;;;;;;;;;;;;;;16.42;76.14;100080.38;5012103;28;835;-57
2022/10/01 00:07:54;;;;;;;;;;;;;;;16.52;75.88;100084.94;5012124;28;847;-57
2022/10/01 00:10:22;;;;;;;;;;;;;;;16.63;75.76;100079.06;5011897;28;1926;-57
2022/10/01 00:12:48;;;;;;;;;;;;;;;16.81;75.06;100081.44;5012113;28;814;-57
2022/10/01 00:15:15;;;;;;;;;;;;;;;16.93;74.20;100080.72;5012080;28;814;-57
2022/10/01 00:17:42;;;;;;;;;;;;;;;16.92;74.00;100070.78;5011985;28;886;-57
2022/10/01 00:20:10;;;;;;;;;;;;;;;16.73;74.40;100066.09;5011950;28;858;-57
2022/10/01 00:22:37;;;;;;;;;;;;;;;16.48;75.08;100069.50;5011843;28;926;-57
2022/10/01 00:25:04;;;;;;;;;;;;;;;16.28;75.65;100067.59;5011816;28;984;-57
2022/10/01 00:27:30;;;;;;;;;;;;;;;16.24;75.85;100069.66;5011680;28;819;-57
2022/10/01 00:29:57;;;;;;;;;;;;;;;16.27;76.05;100068.00;5011695;28;1882;-57
2022/10/01 00:32:24;;;;;;;;;;;;;;;16.23;76.64;100067.31;5011963;28;907;-57
2022/10/01 00:34:53;;;;;;;;;;;;;;;16.18;76.64;100070.63;5011847;28;866;-57
2022/10/01 00:37:21;;;;;;;;;;;;;;;16.13;76.93;100069.16;5011668;28;973;-57
2022/10/01 00:39:47;;;;;;;;;;;;;;;16.10;77.03;100075.56;5011715;28;870;-57
2022/10/01 00:42:18;;;;;;;;;;;;;;;15.98;77.37;100073.47;5011672;28;886;-57
2022/10/01 00:44:45;;;;;;;;;;;;;;;15.85;77.61;100071.38;5011382;28;1283;-57
2022/10/01 00:47:12;;;;;;;;;;;;;;;15.71;78.23;100068.84;5011713;28;875;-57
2022/10/01 00:49:40;;;;;;;;;;;;;;;15.59;78.65;100059.16;5011805;28;1969;-57
2022/10/01 00:52:10;;;;;;;;;;;;;;;15.57;79.04;100049.66;5011633;28;850;-57
2022/10/01 00:54:36;;;;;;;;;;;;;;;15.52;79.21;100050.94;5010378;28;915;-57
2022/10/01 00:57:05;;;;;;;;;;;;;;;15.45;79.62;100062.25;5011806;28;938;-57
2022/10/01 00:59:32;;;;;;;;;;;;;;;15.43;80.06;100065.47;5011484;28;970;-57
2022/10/01 01:01:59;;;;;;;;;;;;;;;15.44;80.26;100052.31;5010417;28;847;-57
2022/10/01 01:04:26;;;;;;;;;;;;;;;15.43;80.38;100054.31;5011523;28;867;-57
2022/10/01 01:06:56;;;;;;;;;;;;;;;15.46;80.57;100049.88;5011696;28;937;-57
2022/10/01 01:09:25;;;;;;;;;;;;;;;15.43;80.71;100054.31;5011540;28;1874;-57
2022/10/01 01:12:00;;;;;;;;;;;;;;;15.42;80.93;100049.94;5011439;28;969;-57
2022/10/01 01:14:47;;;;;;;;;;;;;;;15.42;81.20;100054.75;5011616;28;818;-57
2022/10/01 01:17:20;;;;;;;;;;;;;;;15.42;81.28;100057.53;5011449;28;847;-57
2022/10/01 01:20:02;;;;;;;;;;;;;;;15.47;81.16;100057.03;5011621;28;812;-57
2022/10/01 01:22:31;;;;;;;;;;;;;;;15.50;81.08;100053.38;5011250;28;886;-57
2022/10/01 01:25:16;;;;;;;;;;;;;;;15.54;81.07;100051.31;5011222;28;925;-57
2022/10/01 01:27:47;;;;;;;;;;;;;;;15.56;81.01;100034.94;5011309;28;969;-57
2022/10/01 01:30:15;;;;;;;;;;;;;;;15.54;81.07;100029.03;5011232;28;1878;-57
2022/10/01 01:32:47;;;;;;;;;;;;;;;15.59;81.08;100036.09;5011458;28;891;-57
2022/10/01 01:35:25;;;;;;;;;;;;;;;15.60;80.83;100032.09;5011226;28;835;-57
2022/10/01 01:37:56;;;;;;;;;;;;;;;15.60;80.89;100027.31;5011261;28;815;-57
2022/10/01 01:40:23;;;;;;;;;;;;;;;15.49;80.85;100033.09;4996783;28;1196;-57
2022/10/01 01:42:52;;;;;;;;;;;;;;;15.29;81.60;100033.09;5014652;28;894;-57
2022/10/01 01:45:21;;;;;;;;;;;;;;;15.28;82.05;100039.91;5014549;28;1386;-57
2022/10/01 01:47:50;;;;;;;;;;;;;;;15.35;82.08;100036.19;5014701;28;827;-57
2022/10/01 01:50:17;;;;;;;;;;;;;;;15.44;81.94;100036.38;5013397;28;1973;-57
2022/10/01 01:52:44;;;;;;;;;;;;;;;15.51;81.84;100039.03;5014450;28;929;-57
2022/10/01 01:55:12;;;;;;;;;;;;;;;15.54;81.79;100037.38;5014363;28;930;-57
2022/10/01 01:57:43;;;;;;;;;;;;;;;15.57;82.04;100049.66;5014464;28;905;-57
2022/10/01 02:00:11;;;;;;;;;;;;;;;15.66;81.94;100047.06;5014369;28;910;-57
2022/10/01 02:02:40;;;;;;;;;;;;;;;15.76;81.78;100051.66;5014392;28;867;-57
2022/10/01 02:05:10;;;;;;;;;;;;;;;15.83;81.51;100047.91;5014271;28;909;-57
2022/10/01 02:07:37;;;;;;;;;;;;;;;15.90;81.41;100047.78;5013168;28;802;-57
2022/10/01 02:10:22;;;;;;;;;;;;;;;15.90;81.24;100042.19;5014208;28;1935;-57
2022/10/01 02:13:12;;;;;;;;;;;;;;;15.89;81.23;100037.81;5014091;28;799;-57
2022/10/01 02:15:54;;;;;;;;;;;;;;;15.88;81.33;100034.25;5013982;28;2060;-57
2022/10/01 02:18:25;;;;;;;;;;;;;;;15.93;81.19;100033.72;5013969;28;937;-57
2022/10/01 02:20:52;;;;;;;;;;;;;;;15.95;80.94;100036.09;5013926;28;997;-57
2022/10/01 02:23:23;;;;;;;;;;;;;;;15.95;80.74;100041.66;5013930;28;934;-57
2022/10/01 02:25:53;;;;;;;;;;;;;;;15.91;81.16;100029.81;5013865;28;886;-57
2022/10/01 02:28:21;;;;;;;;;;;;;;;15.90;81.05;100029.03;5012661;28;1019;-57
2022/10/01 02:30:49;;;;;;;;;;;;;;;15.88;81.27;100034.25;5013738;28;1949;-57
2022/10/01 02:33:20;;;;;;;;;;;;;;;15.80;81.27;100032.84;5014296;28;1007;-57
2022/10/01 02:35:49;;;;;;;;;;;;;;;15.75;81.64;100036.16;4996169;28;875;-57
2022/10/01 02:38:17;;;;;;;;;;;;;;;15.70;82.01;100029.06;5013779;28;799;-57
2022/10/01 02:40:45;;;;;;;;;;;;;;;15.69;82.17;100032.28;5013548;28;811;-57
2022/10/01 02:43:16;;;;;;;;;;;;;;;15.66;82.30;100031.16;5012375;28;890;-57
2022/10/01 02:45:45;;;;;;;;;;;;;;;15.64;82.41;100028.00;5013318;28;1313;-57
2022/10/01 02:48:16;;;;;;;;;;;;;;;15.63;82.36;100034.00;5013713;28;822;-57
2022/10/01 02:50:55;;;;;;;;;;;;;;;15.59;82.60;100034.06;5013088;28;1914;-57
2022/10/01 02:53:25;;;;;;;;;;;;;;;15.55;82.85;100047.28;5013706;28;901;-57
2022/10/01 02:55:52;;;;;;;;;;;;;;;15.56;83.09;100048.09;5013298;28;840;-57
2022/10/01 02:58:20;;;;;;;;;;;;;;;15.64;82.90;100052.28;4995777;28;1747;-57
2022/10/01 03:00:46;;;;;;;;;;;;;;;15.74;82.32;100050.50;5013391;28;795;-57
2022/10/01 03:03:15;;;;;;;;;;;;;;;15.77;82.14;100055.22;5013235;28;792;-57
2022/10/01 03:05:41;;;;;;;;;;;;;;;15.79;81.92;100058.34;5013191;28;840;-57
2022/10/01 03:08:08;;;;;;;;;;;;;;;15.73;81.82;100060.09;5013171;28;807;-57
2022/10/01 03:10:34;;;;;;;;;;;;;;;15.62;82.11;100063.88;5012879;28;1953;-57
2022/10/01 03:13:01;;;;;;;;;;;;;;;15.52;82.64;100070.44;5012987;28;831;-57
2022/10/01 03:15:28;;;;;;;;;;;;;;;15.47;82.92;100068.19;5013041;28;815;-57
2022/10/01 03:17:54;;;;;;;;;;;;;;;15.41;83.13;100070.66;5012927;28;850;-57
2022/10/01 03:20:21;;;;;;;;;;;;;;;15.32;83.61;100079.59;5012837;28;942;-57
2022/10/01 03:22:48;;;;;;;;;;;;;;;15.26;84.19;100080.53;5012838;28;818;-57
2022/10/01 03:25:15;;;;;;;;;;;;;;;15.17;84.58;100064.41;5012675;28;844;-57
2022/10/01 03:27:42;;;;;;;;;;;;;;;15.04;84.75;100069.81;5012706;28;997;-57
2022/10/01 03:30:09;;;;;;;;;;;;;;;14.92;85.42;100078.00;5012511;28;1894;-57
2022/10/01 03:32:37;;;;;;;;;;;;;;;14.79;85.84;100080.63;5012979;28;889;-57
2022/10/01 03:35:04;;;;;;;;;;;;;;;14.64;86.66;100091.97;5012649;28;896;-57
2022/10/01 03:37:30;;;;;;;;;;;;;;;14.53;87.19;100083.00;5012747;28;835;-57
2022/10/01 03:39:56;;;;;;;;;;;;;;;14.41;87.68;100092.72;5012401;28;911;-57
2022/10/01 03:42:23;;;;;;;;;;;;;;;14.29;87.97;100093.31;5012514;28;807;-57
2022/10/01 03:44:50;;;;;;;;;;;;;;;14.20;88.74;100099.41;5012183;28;1254;-57
2022/10/01 03:47:16;;;;;;;;;;;;;;;14.09;89.15;100107.91;5012438;28;855;-56
2022/10/01 03:49:43;;;;;;;;;;;;;;;14.00;89.91;100107.63;5012335;28;1918;-57
2022/10/01 03:52:09;;;;;;;;;;;;;;;13.96;90.08;100106.13;5012290;28;835;-59
2022/10/01 03:54:35;;;;;;;;;;;;;;;13.92;90.06;100108.94;5012350;28;890;-59
2022/10/01 03:57:02;;;;;;;;;;;;;;;13.85;90.33;100106.25;5012340;28;917;-59
2022/10/01 03:59:28;;;;;;;;;;;;;;;13.79;90.47;100100.38;5012257;28;869;-59
2022/10/01 04:01:55;;;;;;;;;;;;;;;13.77;90.72;100110.34;5011683;28;853;-59
2022/10/01 04:04:21;;;;;;;;;;;;;;;13.78;91.15;100118.25;5012225;28;816;-59
2022/10/01 04:06:48;;;;;;;;;;;;;;;13.84;91.38;100121.34;5012340;28;867;-59
2022/10/01 04:09:15;;;;;;;;;;;;;;;13.89;91.41;100118.91;5011892;28;1981;-59
2022/10/01 04:11:41;;;;;;;;;;;;;;;13.95;91.11;100119.19;5012143;28;862;-59
2022/10/01 04:14:07;;;;;;;;;;;;;;;14.01;91.40;100123.09;5012030;28;873;-59
2022/10/01 04:16:34;;;;;;;;;;;;;;;14.10;90.97;100114.22;5011943;28;910;-59
2022/10/01 04:19:02;;;;;;;;;;;;;;;14.19;90.78;100106.19;5011849;28;947;-59
2022/10/01 04:21:28;;;;;;;;;;;;;;;14.25;90.48;100100.91;5011967;28;823;-59
2022/10/01 04:23:55;;;;;;;;;;;;;;;14.33;90.13;100107.16;5012006;28;779;-59
2022/10/01 04:26:22;;;;;;;;;;;;;;;14.41;89.74;100103.06;5011989;28;878;-59
2022/10/01 04:28:48;;;;;;;;;;;;;;;14.41;89.58;100114.97;5011870;28;875;-59
2022/10/01 04:31:24;;;;;;;;;;;;;;;14.41;89.35;100114.19;5011848;28;1029;-59
2022/10/01 04:33:51;;;;;;;;;;;;;;;14.43;89.24;100122.91;5011789;28;862;-59
2022/10/01 04:36:19;;;;;;;;;;;;;;;14.45;89.10;100121.25;5011996;28;831;-59
2022/10/01 04:38:45;;;;;;;;;;;;;;;14.46;88.85;100122.03;5011846;28;950;-59
2022/10/01 04:41:13;;;;;;;;;;;;;;;14.47;88.82;100120.84;5010608;28;839;-59
2022/10/01 04:43:39;;;;;;;;;;;;;;;14.49;88.71;100121.22;5011626;28;966;-59
2022/10/01 04:46:06;;;;;;;;;;;;;;;14.55;88.68;100116.78;5011344;28;1525;-59
2022/10/01 04:48:41;;;;;;;;;;;;;;;14.64;88.54;100122.59;5011947;28;902;-59
2022/10/01 04:51:08;;;;;;;;;;;;;;;14.76;88.01;100118.41;5011489;28;1906;-59
2022/10/01 04:53:34;;;;;;;;;;;;;;;14.92;87.54;100123.31;5011628;28;878;-59
2022/10/01 04:56:01;;;;;;;;;;;;;;;15.12;86.62;100117.78;5011495;28;823;-59
2022/10/01 04:58:26;;;;;;;;;;;;;;;15.35;85.91;100122.50;5011534;28;1057;-59
2022/10/01 05:00:53;;;;;;;;;;;;;;;15.58;84.96;100124.44;5011601;28;871;-59
2022/10/01 05:34:13;;;;;;;;;;;;;;;17.15;77.01;100136.00;4992043;28;1435;-59
2022/10/01 05:36:40;;;;;;;;;;;;;;;17.29;76.40;100135.63;4995635;28;889;-59
2022/10/01 05:39:06;;;;;;;;;;;;;;;17.49;75.67;100146.63;4995831;28;782;-59
2022/10/01 05:41:32;;;;;;;;;;;;;;;17.66;75.07;100150.16;4995882;28;810;-59
2022/10/01 05:43:59;;;;;;;;;;;;;;;17.86;74.32;100160.41;4995492;28;866;-59
2022/10/01 05:46:26;;;;;;;;;;;;;;;18.07;73.40;100159.00;4995144;28;854;-59
2022/10/01 05:48:52;;;;;;;;;;;;;;;18.28;72.41;100165.94;4995003;28;1973;-59
2022/10/01 05:51:19;;;;;;;;;;;;;;;18.47;71.29;100159.34;4995073;28;803;-59
2022/10/01 05:53:47;;;;;;;;;;;;;;;18.61;70.07;100165.75;4995025;28;936;-59
2022/10/01 05:56:14;;;;;;;;;;;;;;;18.69;69.08;100169.84;4995278;28;889;-59
2022/10/01 05:58:42;;;;;;;;;;;;;;;18.80;68.54;100159.13;4994879;28;858;-59
2022/10/01 06:01:08;;;;;;;;;;;;;;;19.02;67.98;100155.63;4994882;28;818;-59
2022/10/01 06:03:35;;;;;;;;;;;;;;;19.12;67.21;100157.28;4994682;28;858;-59
2022/10/01 06:06:03;;;;;;;;;;;;;;;19.16;66.70;100157.91;4994795;28;858;-58
2022/10/01 06:08:30;;;;;;;;;;;;;;;19.24;66.23;100150.81;4995527;28;767;-58
2022/10/01 06:11:00;;;;;;;;;;;;;;;19.25;66.11;100149.59;4995227;28;1974;-59
2022/10/01 06:13:27;;;;;;;;;;;;;;;19.27;65.44;100152.72;4995004;28;850;-59
2022/10/01 06:15:53;;;;;;;;;;;;;;;19.37;64.97;100153.56;4994623;28;819;-59
2022/10/01 06:18:20;;;;;;;;;;;;;;;19.60;64.45;100146.75;4994809;28;811;-59
2022/10/01 06:20:46;;;;;;;;;;;;;;;19.70;63.99;100144.81;4994756;28;799;-59
2022/10/01 06:23:13;;;;;;;;;;;;;;;19.81;63.30;100150.03;4994771;28;932;-59
2022/10/01 06:25:42;;;;;;;;;;;;;;;20.03;62.45;100147.19;4994116;28;887;-59
2022/10/01 06:28:10;;;;;;;;;;;;;;;20.24;61.48;100142.78;4994432;28;802;-59
2022/10/01 06:30:38;;;;;;;;;;;;;;;20.31;61.18;100140.47;4994253;28;1947;-59
2022/10/01 06:33:06;;;;;;;;;;;;;;;20.43;60.97;100129.59;4992723;28;1249;-59
2022/10/01 06:35:34;;;;;;;;;;;;;;;20.57;60.92;100146.69;4992996;28;1264;-59
2022/10/01 06:38:00;;;;;;;;;;;;;;;20.76;60.24;100136.28;4994235;28;866;-58
2022/10/01 06:40:30;;;;;;;;;;;;;;;21.02;59.43;100133.19;4994134;28;910;-59
2022/10/01 06:42:57;;;;;;;;;;;;;;;21.20;58.47;100129.59;4994168;28;838;-59
2022/10/01 06:45:24;;;;;;;;;;;;;;;21.43;58.03;100127.44;4994263;28;822;-59
2022/10/01 06:47:54;;;;;;;;;;;;;;;21.76;57.02;100121.91;4993988;28;854;-59
2022/10/01 06:50:21;;;;;;;;;;;;;;;22.35;55.06;100130.81;4993950;28;1973;-59
2022/10/01 06:52:49;;;;;;;;;;;;;;;23.18;52.48;100127.50;4993964;28;874;-59
2022/10/01 06:55:17;;;;;;;;;;;;;;;24.01;49.60;100126.72;4993873;28;890;-59
2022/10/01 06:57:44;;;;;;;;;;;;;;;24.82;47.07;100125.38;4993827;28;799;-59
2022/10/01 07:00:12;;;;;;;;;;;;;;;25.73;45.02;100130.00;4993923;28;822;-59
2022/10/01 07:02:39;;;;;;;;;;;;;;;26.12;43.68;100137.31;4993589;28;830;-58
2022/10/01 07:05:07;;;;;;;;;;;;;;;26.07;43.76;100131.13;4993732;28;846;-59
2022/10/01 07:07:36;;;;;;;;;;;;;;;26.05;43.65;100130.88;4992381;28;1354;-59
2022/10/01 07:10:07;;;;;;;;;;;;;;;26.27;43.20;100129.47;4992193;28;1894;-59
2022/10/01 07:12:34;;;;;;;;;;;;;;;26.35;42.71;100132.59;4993849;28;811;-58
2022/10/01 07:15:01;;;;;;;;;;;;;;;26.74;42.33;100138.56;4993911;28;873;-59
2022/10/01 07:17:27;;;;;;;;;;;;;;;26.99;41.42;100130.41;4993902;28;874;-59
2022/10/01 07:19:54;;;;;;;;;;;;;;;27.26;41.06;100129.00;4993827;28;869;-59
2022/10/01 07:22:22;;;;;;;;;;;;;;;27.63;39.45;100126.00;4993935;28;767;-59
2022/10/01 07:24:50;;;;;;;;;;;;;;;27.90;39.56;100130.16;4993490;28;875;-59
2022/10/01 07:27:17;;;;;;;;;;;;;;;27.93;38.95;100130.41;4993591;28;869;-59
2022/10/01 07:29:44;;;;;;;;;;;;;;;28.13;38.67;100118.81;4993339;28;1953;-59
2022/10/01 07:32:13;;;;;;;;;;;;;;;27.98;38.67;100126.81;4993068;28;1088;-59
2022/10/01 07:34:40;;;;;;;;;;;;;;;28.03;38.14;100123.19;4993076;28;1333;-59
2022/10/01 07:37:07;;;;;;;;;;;;;;;27.90;38.86;100126.56;4992267;28;881;-59
2022/10/01 07:39:33;;;;;;;;;;;;;;;28.14;39.24;100117.50;4993063;28;854;-59
2022/10/01 07:42:00;;;;;;;;;;;;;;;28.63;37.76;100117.94;4991703;28;1188;-59
2022/10/01 07:44:28;;;;;;;;;;;;;;;28.88;37.76;100115.28;4992988;28;869;-59
2022/10/01 07:46:55;;;;;;;;;;;;;;;29.08;37.65;100119.84;4992899;28;869;-59
2022/10/01 07:49:25;;;;;;;;;;;;;;;29.33;36.59;100114.34;4992844;28;1906;-59
2022/10/01 07:51:53;;;;;;;;;;;;;;;29.56;36.01;100114.97;4992825;28;873;-59
2022/10/01 07:54:20;;;;;;;;;;;;;;;29.66;36.19;100114.13;4992744;28;842;-60
2022/10/01 07:56:51;;;;;;;;;;;;;;;30.04;35.57;100110.72;4993006;28;822;-59
2022/10/01 07:59:18;;;;;;;;;;;;;;;30.17;35.29;100095.84;4992714;28;869;-59
2022/10/01 08:01:47;;;;;;;;;;;;;;;30.09;35.13;100092.81;4992660;28;952;-59
2022/10/01 08:06:58;;;;;;;;;;;;;;;29.84;35.28;100084.22;4992662;28;664;-59
2022/10/01 08:09:26;;;;;;;;;;;;;;;30.12;34.87;100080.34;4992460;28;1930;-59
2022/10/01 08:11:52;;;;;;;;;;;;;;;30.28;34.53;100081.50;4992502;28;815;-59
2022/10/01 08:14:19;;;;;;;;;;;;;;;30.71;33.90;100075.84;4992387;28;898;-59
2022/10/01 08:16:46;;;;;;;;;;;;;;;30.96;32.98;100092.16;4991191;28;1251;-59
2022/10/01 08:19:14;;;;;;;;;;;;;;;30.90;33.51;100084.44;4992451;28;934;-59
2022/10/01 08:21:40;;;;;;;;;;;;;;;30.71;33.13;100073.00;4992342;28;854;-59
2022/10/01 08:24:07;;;;;;;;;;;;;;;30.60;33.81;100083.75;4992405;28;854;-59
2022/10/01 08:26:34;;;;;;;;;;;;;;;30.63;33.60;100068.44;4992555;28;819;-59
2022/10/01 08:29:01;;;;;;;;;;;;;;;30.40;33.91;100056.50;4992126;28;1878;-59
2022/10/01 08:31:27;;;;;;;;;;;;;;;30.31;34.47;100058.41;4992289;28;1092;-59
2022/10/01 08:33:54;;;;;;;;;;;;;;;30.19;35.09;100059.78;4992142;28;1369;-59
2022/10/01 08:36:21;;;;;;;;;;;;;;;30.35;35.07;100060.97;4992113;28;866;-59
2022/10/01 08:38:48;;;;;;;;;;;;;;;30.65;34.52;100057.25;4992284;28;842;-59
2022/10/01 08:41:33;;;;;;;;;;;;;;;30.60;34.45;100064.56;4992181;28;783;-59
2022/10/01 08:44:01;;;;;;;;;;;;;;;30.88;34.34;100072.81;4992252;28;846;-59
2022/10/01 08:46:30;;;;;;;;;;;;;;;30.96;34.04;100077.88;4992214;28;838;-59
2022/10/01 08:49:12;;;;;;;;;;;;;;;30.96;33.49;100081.53;4995070;28;819;-59
2022/10/01 08:51:45;;;;;;;;;;;;;;;30.41;34.43;100081.63;4996089;28;867;-59
2022/10/01 08:57:21;;;;;;;;;;;;;;;30.19;35.23;100074.03;4996151;28;601;-58
2022/10/01 08:59:49;;;;;;;;;;;;;;;30.19;35.36;100076.91;4995937;28;815;-59
2022/10/01 09:02:24;;;;;;;;;;;;;;;30.24;35.27;100075.31;4995974;28;846;-59
2022/10/01 09:04:53;;;;;;;;;;;;;;;30.16;35.85;100077.97;4995870;28;815;-59
2022/10/01 09:07:41;;;;;;;;;;;;;;;30.05;36.09;100078.84;4995824;28;878;-59
2022/10/01 09:10:17;;;;;;;;;;;;;;;29.96;36.28;100079.22;4995782;28;1949;-59
2022/10/01 09:12:47;;;;;;;;;;;;;;;29.73;36.74;100083.56;4995797;28;865;-58
2022/10/01 09:15:17;;;;;;;;;;;;;;;29.64;36.91;100076.09;4995713;28;823;-58
2022/10/01 09:18:05;;;;;;;;;;;;;;;29.60;37.61;100072.75;4995720;28;857;-58
2022/10/01 09:23:44;;;;;;;;;;;;;;;29.78;37.16;100083.50;4995698;28;621;-59
2022/10/01 09:26:11;;;;;;;;;;;;;;;29.74;37.22;100083.00;4995531;28;858;-59
2022/10/01 09:28:40;;;;;;;;;;;;;;;29.69;37.38;100078.09;4995459;28;854;-59
2022/10/01 09:31:14;;;;;;;;;;;;;;;29.74;37.41;100076.53;4995328;28;1945;-59
2022/10/01 09:37:14;;;;;;;;;;;;;;;30.22;36.76;100075.84;4995341;28;617;-59
2022/10/01 09:51:56;;;;;;;;;;;;;;;30.12;36.20;100063.25;4995348;28;632;-60
2022/10/01 10:06:35;;;;;;;;;;;;;;;31.12;35.18;100037.69;4995093;28;744;-60
2022/10/01 10:09:01;;;;;;;;;;;;;;;30.78;35.78;100034.50;4994776;28;842;-60
2022/10/01 10:11:29;;;;;;;;;;;;;;;30.91;35.53;100025.28;4994672;28;871;-60
2022/10/01 10:13:58;;;;;;;;;;;;;;;30.92;35.56;100015.44;4994750;28;802;-60
2022/10/01 10:19:27;;;;;;;;;;;;;;;31.20;35.17;99997.88;4994824;28;618;-59
2022/10/01 10:24:57;;;;;;;;;;;;;;;31.37;33.82;99997.63;4994495;28;605;-59
2022/10/01 10:27:28;;;;;;;;;;;;;;;31.65;33.79;99990.69;4994472;28;905;-60
2022/10/01 10:30:03;;;;;;;;;;;;;;;31.83;33.16;99984.13;4992955;28;1946;-59
2022/10/01 10:32:31;;;;;;;;;;;;;;;32.08;32.76;99972.53;4994544;28;966;-59
2022/10/01 10:47:13;;;;;;;;;;;;;;;32.76;30.37;99943.28;4994372;28;657;-59
2022/10/01 10:49:40;;;;;;;;;;;;;;;32.95;29.69;99940.25;4993990;28;1977;-60
2022/10/01 10:52:17;;;;;;;;;;;;;;;32.99;29.43;99934.16;4993885;28;791;-60
2022/10/01 10:54:46;;;;;;;;;;;;;;;33.19;29.64;99944.13;4993910;28;859;-59
2022/10/01 10:57:22;;;;;;;;;;;;;;;33.36;28.86;99933.03;4993685;28;822;-60
2022/10/01 10:59:55;;;;;;;;;;;;;;;33.52;28.30;99911.78;4993844;28;863;-60
2022/10/01 11:02:25;;;;;;;;;;;;;;;33.62;28.46;99903.44;4993705;28;870;-59
2022/10/01 11:04:53;;;;;;;;;;;;;;;33.98;28.14;99896.97;4993738;28;811;-59
2022/10/01 11:07:21;;;;;;;;;;;;;;;34.47;27.38;99901.81;4993641;28;886;-59
2022/10/01 11:09:54;;;;;;;;;;;;;;;34.05;27.58;99890.50;4993514;28;1949;-60
2022/10/01 11:12:29;;;;;;;;;;;;;;;34.02;26.98;99888.03;4992242;28;1275;-59
2022/10/01 11:15:10;;;;;;;;;;;;;;;34.27;26.98;99886.25;4993504;28;865;-59
2022/10/01 11:17:55;;;;;;;;;;;;;;;34.65;26.28;99890.59;4993509;28;886;-59
2022/10/01 11:20:31;;;;;;;;;;;;;;;34.54;26.52;99906.03;4993917;28;756;-60
2022/10/01 11:23:01;;;;;;;;;;;;;;;33.68;27.08;99906.94;4993296;28;886;-60
2022/10/01 11:25:37;;;;;;;;;;;;;;;32.77;26.82;99898.25;4993491;28;783;-61
2022/10/01 11:28:11;;;;;;;;;;;;;;;32.45;28.23;99899.97;4993305;28;826;-61
2022/10/01 11:30:47;;;;;;;;;;;;;;;32.80;28.20;99905.75;4993217;28;1886;-61
2022/10/01 11:33:20;;;;;;;;;;;;;;;32.99;28.04;99911.25;4993197;28;1227;-61
2022/10/01 11:35:51;;;;;;;;;;;;;;;32.64;29.12;99910.53;4993653;28;882;-61
2022/10/01 11:38:22;;;;;;;;;;;;;;;32.19;29.63;99915.13;4993101;28;818;-60
2022/10/01 11:40:53;;;;;;;;;;;;;;;31.97;30.53;99907.00;4993058;28;803;-61
2022/10/01 12:13:40;;;;;;;;;;;;;;;33.60;27.97;99873.81;4992518;28;617;-61
2022/10/01 12:16:28;;;;;;;;;;;;;;;32.99;28.65;99871.97;4992493;28;810;-61
2022/10/01 12:22:10;;;;;;;;;;;;;;;31.66;29.98;99875.88;4992717;28;618;-60
2022/10/01 12:24:41;;;;;;;;;;;;;;;31.54;30.75;99877.41;4992316;28;822;-61
2022/10/01 12:27:18;;;;;;;;;;;;;;;32.12;29.86;99873.69;4992238;28;890;-60
2022/10/01 12:29:49;;;;;;;;;;;;;;;32.16;29.44;99876.22;4992247;28;1890;-60
2022/10/01 12:32:21;;;;;;;;;;;;;;;32.18;29.54;99870.69;4992338;28;1123;-60
2022/10/01 12:47:37;;;;;;;;;;;;;;;31.89;28.89;99861.91;4992180;28;625;-60
2022/10/01 12:50:06;;;;;;;;;;;;;;;31.31;29.91;99865.59;4991986;28;1914;-61
2022/10/01 12:52:58;;;;;;;;;;;;;;;30.83;31.21;99865.34;4992131;28;799;-61
2022/10/01 12:55:36;;;;;;;;;;;;;;;30.64;31.53;99861.75;4991997;28;795;-60
2022/10/01 12:58:20;;;;;;;;;;;;;;;31.78;30.49;99862.16;4992176;28;787;-61
2022/10/01 13:01:08;;;;;;;;;;;;;;;32.31;29.42;99864.94;4992018;28;799;-61
2022/10/01 13:03:40;;;;;;;;;;;;;;;31.96;29.98;99854.75;4992017;28;850;-61
2022/10/01 13:06:23;;;;;;;;;;;;;;;31.86;29.33;99845.13;4992274;28;873;-61
2022/10/01 13:09:08;;;;;;;;;;;;;;;31.61;29.53;99836.75;4990715;28;881;-60
2022/10/01 13:11:40;;;;;;;;;;;;;;;31.31;29.35;99834.19;4991865;28;2045;-60
2022/10/01 13:14:11;;;;;;;;;;;;;;;31.44;29.28;99830.63;4992179;28;881;-60
2022/10/01 13:16:41;;;;;;;;;;;;;;;32.07;28.70;99819.47;4992054;28;890;-61
2022/10/01 13:19:25;;;;;;;;;;;;;;;32.33;28.79;99812.94;4991839;28;857;-61
2022/10/01 13:22:07;;;;;;;;;;;;;;;32.74;28.44;99800.78;4991881;28;771;-60
2022/10/01 13:24:38;;;;;;;;;;;;;;;32.92;28.16;99789.66;4991747;28;827;-61
2022/10/01 13:27:04;;;;;;;;;;;;;;;32.94;28.09;99784.13;4991920;28;803;-61
2022/10/01 13:29:31;;;;;;;;;;;;;;;33.15;27.85;99779.16;4991981;28;1910;-61
2022/10/01 13:31:59;;;;;;;;;;;;;;;33.38;27.63;99769.97;4992070;28;947;-61
2022/10/01 13:34:38;;;;;;;;;;;;;;;33.62;27.63;99773.75;4992094;28;1267;-61
2022/10/01 13:37:17;;;;;;;;;;;;;;;34.07;26.60;99772.38;4995366;28;850;-61
2022/10/01 13:43:08;;;;;;;;;;;;;;;33.37;26.17;99779.88;4995284;28;614;-61
2022/10/01 13:45:44;;;;;;;;;;;;;;;33.27;26.24;99790.34;4995360;28;811;-63
2022/10/01 13:48:10;;;;;;;;;;;;;;;32.88;27.31;99794.97;4995193;28;811;-60
2022/10/01 13:53:43;;;;;;;;;;;;;;;31.88;28.35;99788.94;4995505;28;688;-61
2022/10/01 13:56:27;;;;;;;;;;;;;;;31.52;28.89;99774.38;4995055;28;1013;-60
2022/10/01 14:08:37;;;;;;;;;;;;;;;31.34;27.76;99736.03;4995313;28;598;-61
2022/10/01 14:16:40;;;;;;;;;;;;;;;32.09;27.50;99711.06;4994624;28;571;-60
2022/10/01 14:19:06;;;;;;;;;;;;;;;31.40;28.53;99715.94;4994594;28;851;-60
2022/10/01 14:21:32;;;;;;;;;;;;;;;31.18;28.63;99725.72;4993570;28;882;-60
2022/10/01 14:24:04;;;;;;;;;;;;;;;31.20;28.79;99725.94;4994733;28;846;-61
2022/10/01 14:26:32;;;;;;;;;;;;;;;31.54;28.42;99726.06;4994431;28;843;-61
2022/10/01 14:29:04;;;;;;;;;;;;;;;31.67;28.22;99720.31;4993095;28;1189;-61
2022/10/01 14:31:30;;;;;;;;;;;;;;;31.54;28.45;99706.81;4994282;28;1890;-61
2022/10/01 14:33:55;;;;;;;;;;;;;;;30.90;28.92;99689.94;4994371;28;1439;-61
2022/10/01 14:36:36;;;;;;;;;;;;;;;30.13;30.12;99689.38;4994521;28;856;-61
2022/10/01 14:39:15;;;;;;;;;;;;;;;29.35;31.52;99684.78;4994245;28;882;-60
2022/10/01 14:41:41;;;;;;;;;;;;;;;28.77;32.21;99685.91;4994189;28;874;-61
2022/10/01 14:44:24;;;;;;;;;;;;;;;28.37;33.51;99679.78;4992913;28;1276;-60
2022/10/01 14:46:51;;;;;;;;;;;;;;;27.98;34.05;99678.81;4994065;28;747;-60
2022/10/01 14:49:27;;;;;;;;;;;;;;;27.74;34.02;99678.66;4993869;28;1906;-60
2022/10/01 14:52:03;;;;;;;;;;;;;;;27.53;34.84;99675.44;4994062;28;803;-60
2022/10/01 14:54:32;;;;;;;;;;;;;;;27.40;35.37;99685.31;4993878;28;814;-60
2022/10/01 14:56:58;;;;;;;;;;;;;;;27.34;35.64;99686.63;4993823;28;894;-60
2022/10/01 14:59:38;;;;;;;;;;;;;;;27.26;35.62;99655.19;4993932;28;877;-60
2022/10/01 15:02:16;;;;;;;;;;;;;;;27.23;35.92;99645.66;4993777;28;854;-60
2022/10/01 15:04:49;;;;;;;;;;;;;;;27.23;36.37;99645.66;4994522;28;759;-60
2022/10/01 15:07:16;;;;;;;;;;;;;;;27.25;36.52;99622.44;4993742;28;798;-60
2022/10/01 15:09:42;;;;;;;;;;;;;;;27.28;36.47;99610.03;4993599;28;1882;-60
2022/10/01 15:12:07;;;;;;;;;;;;;;;27.28;36.63;99598.69;4993586;28;850;-60
2022/10/01 15:14:35;;;;;;;;;;;;;;;27.18;36.68;99592.50;4992553;28;851;-60
2022/10/01 15:17:05;;;;;;;;;;;;;;;27.05;37.23;99598.75;4993513;28;854;-60
2022/10/01 15:19:31;;;;;;;;;;;;;;;26.92;37.59;99609.91;4993434;28;787;-60
2022/10/01 15:21:59;;;;;;;;;;;;;;;26.82;37.58;99615.09;4993455;28;811;-60
2022/10/01 15:24:40;;;;;;;;;;;;;;;26.76;38.01;99611.50;4993588;28;862;-59
2022/10/01 15:27:07;;;;;;;;;;;;;;;26.68;38.10;99622.59;4993591;28;787;-60
2022/10/01 15:29:33;;;;;;;;;;;;;;;26.59;38.55;99628.56;4993443;28;1955;-60
2022/10/01 15:31:59;;;;;;;;;;;;;;;26.49;38.21;99635.75;4993744;28;912;-60
2022/10/01 15:34:25;;;;;;;;;;;;;;;26.39;38.96;99626.75;4992997;28;1318;-60
2022/10/01 15:36:52;;;;;;;;;;;;;;;26.32;39.20;99626.50;4993155;28;787;-60
2022/10/01 15:39:29;;;;;;;;;;;;;;;26.19;39.47;99638.38;4993090;28;846;-60
2022/10/01 15:41:55;;;;;;;;;;;;;;;26.07;39.55;99640.41;4993146;28;779;-60
2022/10/01 15:44:36;;;;;;;;;;;;;;;25.98;39.83;99632.19;4992917;28;826;-60